Terminal Aerodrome Forecast
Issued by NWS

Home | Current Version | Previous Version | Text Only | Print | Product List | Glossary On
Versions: 1 2 3 4 5 6 7 8 9 10 11 12 13 14 15 16 17 18 19
000
FTUS44 KCRP 031154 AAA
TAFALI
TAF AMD
KALI 031154Z 0312/0412 VRB02KT 6SM BR FEW018 SCT025
      TEMPO 0312/0314 2SM BR BKN025
     FM031400 15006KT P6SM BKN035
      TEMPO 0314/0315 BKN030
     FM031900 12012KT P6SM VCSH BKN045
     FM032300 12010KT P6SM FEW050
     FM040900 VRB03KT 6SM BR FEW018=

USA.gov is the U.S. government's official web portal to all federal, state and local government web resources and services.